Time;durP1;ratioP1;P1;durP2;ratioP2;P2;SDS_P1;SDS_P2;PMS_P1;PMS_P2;Temp;Humidity;BMP_temperature;BMP_pressure;BME280_temperature;BME280_humidity;BME280_pressure;Samples;Min_cycle;Max_cycle;Signal;HPM_P1;HPM_P2
2023/09/29 00:00:59;;;;;;;0.20;0.20;;;;;;;14.96;80.07;95080.06;5070969;28;20215;-74
2023/09/29 00:03:28;;;;;;;0.20;0.20;;;;;;;14.96;79.76;95074.63;5071545;28;20479;-72
2023/09/29 00:05:54;;;;;;;0.20;0.20;;;;;;;14.91;79.75;95070.97;5070542;28;20636;-73
2023/09/29 00:08:22;;;;;;;1.30;0.65;;;;;;;14.88;80.38;95074.41;5071225;28;20207;-73
2023/09/29 00:10:50;;;;;;;0.30;0.30;;;;;;;14.85;80.52;95069.63;5070689;28;20606;-72
2023/09/29 00:13:17;;;;;;;0.20;0.20;;;;;;;14.81;80.52;95074.19;5070718;28;20222;-72
2023/09/29 00:15:44;;;;;;;0.32;0.32;;;;;;;14.81;80.20;95067.94;5071108;28;20600;-73
2023/09/29 00:18:11;;;;;;;0.10;0.10;;;;;;;14.82;79.97;95064.88;5070757;28;20548;-72
2023/09/29 00:20:39;;;;;;;0.45;0.45;;;;;;;14.84;79.96;95072.72;5070670;28;20552;-72
2023/09/29 00:23:06;;;;;;;0.17;0.17;;;;;;;14.91;79.97;95068.25;5070816;28;20207;-72
2023/09/29 00:25:33;;;;;;;0.20;0.20;;;;;;;15.03;79.91;95066.66;5070635;28;20305;-72
2023/09/29 00:28:00;;;;;;;0.47;0.47;;;;;;;14.97;79.76;95065.28;5070567;28;20234;-72
2023/09/29 00:30:27;;;;;;;0.50;0.50;;;;;;;14.92;81.07;95069.03;5070431;28;20207;-72
2023/09/29 00:32:54;;;;;;;0.75;0.55;;;;;;;14.84;81.68;95065.31;5069885;28;20209;-72
2023/09/29 00:35:27;;;;;;;0.40;0.40;;;;;;;14.74;81.68;95068.53;5069800;28;20226;-72
2023/09/29 00:37:56;;;;;;;0.20;0.20;;;;;;;14.67;81.26;95068.28;5070563;28;20200;-71
2023/09/29 00:40:23;;;;;;;0.20;0.20;;;;;;;14.67;80.89;95071.00;5070319;28;20693;-71
2023/09/29 00:42:51;;;;;;;0.10;0.10;;;;;;;14.70;81.17;95072.28;5070293;28;20234;-72
2023/09/29 00:45:22;;;;;;;0.15;0.15;;;;;;;14.62;80.87;95071.25;5070178;28;20199;-73
2023/09/29 00:47:51;;;;;;;0.40;0.40;;;;;;;14.61;80.90;95075.13;5070570;28;20306;-73
2023/09/29 00:50:20;;;;;;;0.30;0.30;;;;;;;14.62;80.97;95065.81;5070339;28;20203;-72
2023/09/29 00:52:48;;;;;;;2.90;1.65;;;;;;;14.57;81.26;95063.31;5070160;28;20210;-74
2023/09/29 00:55:18;;;;;;;0.35;0.35;;;;;;;14.51;81.80;95062.72;5070219;28;20202;-74
2023/09/29 00:57:47;;;;;;;0.10;0.10;;;;;;;14.50;81.64;95063.06;5070358;28;20187;-73
2023/09/29 01:00:21;;;;;;;0.93;0.75;;;;;;;14.45;82.15;95055.13;5070259;28;20209;-72
2023/09/29 01:02:48;;;;;;;0.28;0.28;;;;;;;14.42;82.67;95051.16;5069817;28;20205;-73
2023/09/29 01:05:16;;;;;;;0.47;0.45;;;;;;;14.32;82.72;95061.69;5069872;28;20214;-73
2023/09/29 01:07:43;;;;;;;0.52;0.40;;;;;;;14.29;83.02;95065.09;5069988;28;20230;-72
2023/09/29 01:10:11;;;;;;;0.45;0.45;;;;;;;14.20;82.50;95057.84;5069984;28;20296;-72
2023/09/29 01:12:39;;;;;;;0.30;0.30;;;;;;;14.25;82.31;95062.25;5069762;28;20287;-73
2023/09/29 01:15:08;;;;;;;0.40;0.40;;;;;;;14.22;82.74;95061.00;5070236;28;20581;-73
2023/09/29 01:17:37;;;;;;;1.67;0.57;;;;;;;14.16;83.12;95059.63;5069829;28;20198;-73
2023/09/29 01:20:12;;;;;;;0.50;0.50;;;;;;;14.09;82.21;95053.94;5069750;28;20218;-72
2023/09/29 01:22:45;;;;;;;0.55;0.55;;;;;;;14.01;83.52;95060.31;5069990;28;20187;-72
2023/09/29 01:25:14;;;;;;;0.47;0.47;;;;;;;14.08;82.38;95057.78;5070340;28;20585;-72
2023/09/29 01:27:41;;;;;;;0.20;0.20;;;;;;;14.07;80.96;95058.16;5069775;28;20230;-74
2023/09/29 01:30:10;;;;;;;0.40;0.40;;;;;;;14.06;79.96;95054.63;5069640;28;20632;-73
2023/09/29 01:32:37;;;;;;;1.70;0.98;;;;;;;14.13;79.52;95065.75;5069507;28;20238;-71
2023/09/29 01:35:04;;;;;;;0.50;0.50;;;;;;;14.11;80.44;95068.03;5069400;28;20203;-71
2023/09/29 01:37:31;;;;;;;0.30;0.30;;;;;;;14.03;81.28;95066.22;5069705;28;20210;-72
2023/09/29 01:39:57;;;;;;;0.30;0.30;;;;;;;13.99;81.91;95059.84;5069675;28;20309;-71
2023/09/29 01:42:25;;;;;;;0.30;0.30;;;;;;;14.00;83.03;95066.88;5069671;28;20213;-72
2023/09/29 01:44:52;;;;;;;0.20;0.20;;;;;;;13.92;83.38;95070.50;5070395;28;20805;-72
2023/09/29 01:47:19;;;;;;;0.60;0.60;;;;;;;13.93;83.64;95072.09;5073882;28;20222;-72
2023/09/29 01:49:48;;;;;;;0.73;0.73;;;;;;;13.87;83.82;95068.00;5073403;28;20738;-71
2023/09/29 01:52:14;;;;;;;0.20;0.20;;;;;;;13.86;84.08;95072.63;5073760;28;20569;-71
2023/09/29 01:54:41;;;;;;;1.08;1.08;;;;;;;13.87;84.63;95068.78;5073223;28;20207;-72
2023/09/29 01:57:08;;;;;;;0.40;0.40;;;;;;;13.84;84.63;95074.09;5073821;28;20638;-73
2023/09/29 01:59:37;;;;;;;0.30;0.30;;;;;;;13.90;84.61;95061.88;5073269;28;20210;-74
2023/09/29 02:02:03;;;;;;;0.35;0.35;;;;;;;13.81;84.69;95070.13;5073556;28;20211;-73
2023/09/29 02:04:30;;;;;;;1.27;0.90;;;;;;;13.77;84.19;95062.97;5073319;28;20215;-72
2023/09/29 02:06:57;;;;;;;1.77;1.38;;;;;;;13.80;84.34;95062.31;5073418;28;20580;-72
2023/09/29 02:09:24;;;;;;;2.13;1.30;;;;;;;13.90;84.23;95061.88;5073602;28;20211;-72
2023/09/29 02:11:50;;;;;;;1.67;1.08;;;;;;;13.86;84.49;95066.41;5073471;28;20238;-72
2023/09/29 02:14:17;;;;;;;1.88;1.20;;;;;;;14.03;83.85;95068.94;5073902;28;20615;-72
2023/09/29 02:16:48;;;;;;;1.17;1.08;;;;;;;14.18;83.19;95064.75;5073636;28;20217;-72
2023/09/29 02:19:15;;;;;;;3.20;1.17;;;;;;;14.25;82.68;95067.69;5073395;28;20226;-72
2023/09/29 02:21:43;;;;;;;1.45;1.33;;;;;;;14.29;82.56;95062.38;5073202;28;20211;-72
2023/09/29 02:24:10;;;;;;;0.55;0.30;;;;;;;14.34;82.28;95067.59;5073308;28;20276;-72
2023/09/29 02:26:38;;;;;;;0.10;0.10;;;;;;;14.41;81.49;95068.66;5073076;28;20202;-72
2023/09/29 02:29:08;;;;;;;0.50;0.50;;;;;;;14.42;81.13;95069.44;5073471;28;20301;-72
2023/09/29 02:31:36;;;;;;;0.30;0.30;;;;;;;14.43;80.58;95068.31;5073380;28;20211;-71
2023/09/29 02:34:04;;;;;;;0.35;0.35;;;;;;;14.48;80.57;95068.09;5073199;28;20256;-71
2023/09/29 02:36:31;;;;;;;0.10;0.10;;;;;;;14.57;80.54;95064.09;5073604;28;20211;-72
2023/09/29 02:38:58;;;;;;;0.30;0.30;;;;;;;14.54;81.65;95075.69;5073223;28;20207;-71
2023/09/29 02:41:25;;;;;;;1.20;0.65;;;;;;;14.49;81.97;95077.84;5073301;28;20211;-72
2023/09/29 02:43:52;;;;;;;0.20;0.20;;;;;;;14.60;82.18;95081.72;5072738;28;20211;-72
2023/09/29 02:46:20;;;;;;;0.30;0.30;;;;;;;14.47;82.42;95080.13;5073482;28;20203;-72
2023/09/29 02:48:48;;;;;;;0.10;0.10;;;;;;;14.46;82.06;95075.81;5072915;28;20234;-73
2023/09/29 02:51:17;;;;;;;0.70;0.70;;;;;;;14.54;81.94;95083.06;5073380;28;20207;-73
2023/09/29 02:53:48;;;;;;;0.63;0.63;;;;;;;14.56;82.09;95078.06;5073062;28;20293;-72
2023/09/29 02:56:16;;;;;;;0.10;0.10;;;;;;;14.55;82.12;95076.47;5072018;28;20249;-73
2023/09/29 02:58:44;;;;;;;0.22;0.22;;;;;;;14.57;81.75;95080.47;5072437;28;20633;-72
2023/09/29 03:01:12;;;;;;;0.25;0.25;;;;;;;14.65;82.45;95076.00;5072935;28;20207;-73
2023/09/29 03:03:43;;;;;;;0.30;0.30;;;;;;;14.59;82.68;95080.13;5072641;28;20213;-72
2023/09/29 03:06:12;;;;;;;0.32;0.30;;;;;;;14.60;82.90;95084.44;5073049;28;20211;-72
2023/09/29 03:08:41;;;;;;;0.40;0.40;;;;;;;14.57;82.54;95087.84;5072405;28;20223;-73
2023/09/29 03:11:09;;;;;;;0.30;0.30;;;;;;;14.66;81.87;95093.97;5072608;28;20575;-72
2023/09/29 03:13:37;;;;;;;0.10;0.10;;;;;;;14.61;81.76;95091.50;5072475;28;20210;-72
2023/09/29 03:16:04;;;;;;;0.35;0.35;;;;;;;14.56;81.57;95088.97;5072701;28;20215;-73
2023/09/29 03:18:31;;;;;;;0.30;0.30;;;;;;;14.58;81.36;95087.50;5072847;28;20630;-72
2023/09/29 03:20:59;;;;;;;0.28;0.28;;;;;;;14.66;80.56;95093.97;5072313;28;20207;-72
2023/09/29 03:23:26;;;;;;;0.20;0.20;;;;;;;14.61;80.94;95080.59;5072509;28;20272;-72
2023/09/29 03:25:55;;;;;;;0.30;0.30;;;;;;;14.68;80.61;95077.25;5072388;28;20211;-73
2023/09/29 03:28:22;;;;;;;0.20;0.20;;;;;;;14.65;79.64;95086.91;5072540;28;20317;-72
2023/09/29 03:30:49;;;;;;;3.20;0.68;;;;;;;14.71;79.41;95082.03;5071980;28;20202;-72
2023/09/29 03:33:16;;;;;;;2.38;0.50;;;;;;;14.73;79.23;95075.13;5072421;28;20325;-72
2023/09/29 03:35:43;;;;;;;2.65;1.10;;;;;;;14.73;78.36;95075.13;5071762;28;20209;-72
2023/09/29 03:38:10;;;;;;;1.10;1.00;;;;;;;14.71;78.75;95084.78;5072104;28;20256;-72
2023/09/29 03:40:36;;;;;;;0.20;0.20;;;;;;;14.67;79.25;95087.38;5072277;28;20207;-72
2023/09/29 03:43:05;;;;;;;0.35;0.35;;;;;;;14.67;79.89;95079.19;5072021;28;20211;-73
2023/09/29 03:45:33;;;;;;;0.65;0.63;;;;;;;14.60;79.56;95084.44;5072415;28;20253;-72
2023/09/29 03:47:59;;;;;;;0.90;0.73;;;;;;;14.46;79.42;95087.50;5072122;28;20275;-72
2023/09/29 03:50:26;;;;;;;1.38;0.70;;;;;;;14.40;79.47;95088.06;5072136;28;20203;-72
2023/09/29 03:52:53;;;;;;;0.22;0.22;;;;;;;14.45;80.23;95087.84;5071475;28;20207;-73
2023/09/29 03:55:20;;;;;;;0.20;0.20;;;;;;;14.38;81.33;95085.66;5071958;28;20207;-72
2023/09/29 03:57:48;;;;;;;0.10;0.10;;;;;;;14.32;81.92;95088.94;5071578;28;20206;-72
2023/09/29 04:00:18;;;;;;;0.10;0.10;;;;;;;14.29;82.75;95084.16;5071731;28;20242;-72
2023/09/29 04:02:45;;;;;;;0.32;0.32;;;;;;;14.28;83.17;95088.81;5071798;28;20308;-72
2023/09/29 04:05:12;;;;;;;6.57;1.65;;;;;;;14.26;82.91;95090.28;5071877;28;20795;-72
2023/09/29 04:07:40;;;;;;;0.80;0.75;;;;;;;14.19;82.46;95088.13;5071110;28;20318;-73
2023/09/29 04:10:09;;;;;;;0.40;0.40;;;;;;;14.21;82.81;95083.91;5071077;28;20269;-72
2023/09/29 04:12:35;;;;;;;0.30;0.30;;;;;;;14.24;83.09;95085.19;5051277;28;20204;-72
2023/09/29 04:15:02;;;;;;;0.30;0.30;;;;;;;14.23;82.46;95075.41;5051194;28;20269;-72
2023/09/29 04:17:30;;;;;;;0.47;0.25;;;;;;;14.30;81.94;95080.31;5051688;28;20657;-72
2023/09/29 04:19:57;;;;;;;0.20;0.20;;;;;;;14.32;82.14;95086.22;5051266;28;20211;-72
2023/09/29 04:22:24;;;;;;;1.25;0.88;;;;;;;14.33;81.87;95090.53;5051169;28;20254;-73
2023/09/29 04:24:51;;;;;;;1.75;1.17;;;;;;;14.37;81.94;95081.31;5051331;28;20708;-72
2023/09/29 04:27:18;;;;;;;0.10;0.10;;;;;;;14.42;82.34;95089.31;5051353;28;20211;-73
2023/09/29 04:29:45;;;;;;;1.65;0.50;;;;;;;14.46;82.45;95084.78;5050862;28;20762;-72
2023/09/29 04:32:13;;;;;;;0.30;0.30;;;;;;;14.55;82.52;95087.38;5051162;28;20302;-73
2023/09/29 04:34:41;;;;;;;0.75;0.35;;;;;;;14.58;81.92;95086.72;5050986;28;20250;-72
2023/09/29 04:37:08;;;;;;;0.20;0.20;;;;;;;14.59;81.68;95088.31;5051390;28;20291;-72
2023/09/29 04:39:35;;;;;;;0.30;0.30;;;;;;;14.79;79.79;95087.38;5051022;28;20269;-72
2023/09/29 04:42:03;;;;;;;0.57;0.57;;;;;;;14.92;79.06;95091.66;5050832;28;20212;-71
2023/09/29 04:44:30;;;;;;;0.22;0.22;;;;;;;14.91;79.68;95090.06;5051290;28;20215;-74
2023/09/29 04:46:57;;;;;;;0.20;0.20;;;;;;;14.97;79.18;95092.56;5050907;28;20207;-71
2023/09/29 04:49:24;;;;;;;0.20;0.20;;;;;;;15.02;78.99;95092.34;5049514;28;20711;-71
2023/09/29 04:51:52;;;;;;;0.40;0.40;;;;;;;15.11;78.35;95098.47;5050937;28;20273;-73
2023/09/29 04:54:19;;;;;;;0.30;0.15;;;;;;;15.24;78.21;95089.09;5051003;28;20582;-72
2023/09/29 04:56:46;;;;;;;0.43;0.43;;;;;;;15.44;76.94;95092.81;5050630;28;20203;-72
2023/09/29 04:59:13;;;;;;;0.38;0.38;;;;;;;15.23;78.95;95103.88;5050952;28;20207;-72
2023/09/29 05:01:40;;;;;;;0.40;0.40;;;;;;;15.33;79.21;95106.13;5051324;28;20677;-74
2023/09/29 05:04:07;;;;;;;0.10;0.10;;;;;;;15.69;78.30;95101.72;5050775;28;20552;-72
2023/09/29 05:06:34;;;;;;;1.08;0.22;;;;;;;15.68;77.73;95108.31;5050860;28;20586;-72
2023/09/29 05:09:02;;;;;;;0.55;0.47;;;;;;;15.67;77.92;95104.00;5050444;28;20230;-71
2023/09/29 05:11:29;;;;;;;0.47;0.47;;;;;;;15.71;77.98;95102.19;5061757;28;20770;-72
2023/09/29 05:13:56;;;;;;;0.20;0.20;;;;;;;15.82;77.76;95111.44;5070242;28;20207;-74
2023/09/29 05:16:24;;;;;;;0.88;0.77;;;;;;;15.82;77.66;95111.44;5070501;28;20206;-73
2023/09/29 05:18:53;;;;;;;0.57;0.57;;;;;;;16.12;77.11;95109.94;5070353;28;20199;-73
2023/09/29 05:21:20;;;;;;;0.50;0.45;;;;;;;16.40;76.20;95115.31;5070611;28;20202;-73
2023/09/29 05:23:47;;;;;;;0.40;0.40;;;;;;;16.66;75.21;95114.84;5070316;28;20199;-72
2023/09/29 05:26:15;;;;;;;0.10;0.10;;;;;;;17.03;74.17;95110.63;5070198;28;20617;-72
2023/09/29 05:28:42;;;;;;;0.73;0.60;;;;;;;17.08;73.71;95111.50;5070551;28;20226;-72
2023/09/29 05:31:09;;;;;;;0.30;0.30;;;;;;;17.34;72.33;95115.22;5070236;28;20210;-72
2023/09/29 05:33:36;;;;;;;0.30;0.30;;;;;;;17.00;73.86;95116.81;5070511;28;20206;-73
2023/09/29 05:36:05;;;;;;;0.55;0.55;;;;;;;17.52;72.63;95110.09;5069812;28;20207;-73
2023/09/29 05:38:31;;;;;;;0.40;0.40;;;;;;;17.51;72.39;95114.00;5070682;28;20512;-73
2023/09/29 05:40:58;;;;;;;0.45;0.45;;;;;;;17.73;71.62;95113.34;5070101;28;20249;-73
2023/09/29 05:43:26;;;;;;;0.75;0.47;;;;;;;17.85;71.06;95112.38;5070561;28;20694;-74
2023/09/29 05:45:53;;;;;;;0.60;0.60;;;;;;;18.09;70.27;95112.06;5070231;28;20552;-73
2023/09/29 05:48:21;;;;;;;0.20;0.20;;;;;;;18.91;67.70;95113.50;5070260;28;20234;-73
2023/09/29 05:50:50;;;;;;;3.13;2.03;;;;;;;19.26;65.83;95110.50;5070331;28;20206;-74
2023/09/29 05:53:17;;;;;;;0.73;0.73;;;;;;;19.86;64.14;95114.03;5070363;28;20206;-73
2023/09/29 05:55:44;;;;;;;0.50;0.50;;;;;;;20.02;63.07;95110.28;5069917;28;20203;-73
2023/09/29 05:58:11;;;;;;;0.57;0.57;;;;;;;20.11;62.93;95108.03;5070385;28;20210;-74
2023/09/29 06:00:41;;;;;;;1.38;0.57;;;;;;;20.12;63.31;95106.88;5070023;28;20252;-74
2023/09/29 06:03:08;;;;;;;3.20;2.20;;;;;;;20.02;63.13;95104.78;5070039;28;20313;-73
2023/09/29 06:05:36;;;;;;;0.63;0.60;;;;;;;19.80;63.89;95104.56;5070561;28;20579;-73
2023/09/29 06:08:03;;;;;;;0.65;0.65;;;;;;;20.22;62.31;95108.97;5070095;28;20229;-73
2023/09/29 06:10:29;;;;;;;0.82;0.80;;;;;;;20.56;60.88;95102.22;5069801;28;20242;-74
2023/09/29 06:12:56;;;;;;;0.60;0.60;;;;;;;20.64;58.35;95105.06;5070386;28;20591;-73
2023/09/29 06:15:23;;;;;;;0.43;0.43;;;;;;;20.67;59.08;95104.28;5070371;28;20541;-73
2023/09/29 06:17:52;;;;;;;0.90;0.70;;;;;;;21.71;55.97;95110.16;5070093;28;20199;-73
2023/09/29 06:20:19;;;;;;;0.90;0.65;;;;;;;23.03;52.03;95102.97;5069986;28;20575;-73
2023/09/29 06:22:46;;;;;;;0.98;0.88;;;;;;;23.88;49.14;95097.28;5069898;28;20289;-74
2023/09/29 06:25:13;;;;;;;0.40;0.40;;;;;;;23.27;49.89;95107.69;5070018;28;20290;-73
2023/09/29 06:27:40;;;;;;;0.60;0.60;;;;;;;23.32;50.99;95096.22;5070232;28;20298;-73
2023/09/29 06:30:08;;;;;;;0.43;0.43;;;;;;;23.29;50.78;95102.56;5070005;28;20582;-74
2023/09/29 06:32:34;;;;;;;3.53;1.20;;;;;;;22.45;51.51;95098.56;5071959;28;20198;-73
2023/09/29 06:35:03;;;;;;;0.70;0.70;;;;;;;22.00;53.28;95104.78;5073299;28;20224;-73
2023/09/29 06:37:29;;;;;;;0.38;0.38;;;;;;;21.83;53.57;95104.28;5069625;28;20207;-73
2023/09/29 06:39:56;;;;;;;0.80;0.80;;;;;;;21.88;52.43;95106.66;5072908;28;20683;-73
2023/09/29 06:42:23;;;;;;;0.30;0.30;;;;;;;22.27;52.10;95103.28;5073199;28;20606;-73
2023/09/29 06:44:51;;;;;;;2.38;1.50;;;;;;;22.93;50.84;95095.50;5072625;28;20205;-73
2023/09/29 06:47:17;;;;;;;1.13;0.60;;;;;;;23.69;47.43;95101.28;5073185;28;20207;-73
2023/09/29 06:49:44;;;;;;;1.85;0.65;;;;;;;24.35;44.73;95089.56;5073076;28;20231;-73
2023/09/29 06:52:13;;;;;;;0.63;0.63;;;;;;;25.11;43.24;95085.88;5071508;28;20340;-72
2023/09/29 06:54:39;;;;;;;0.70;0.70;;;;;;;23.59;44.83;95087.50;5072718;28;20191;-72
2023/09/29 06:57:06;;;;;;;1.60;1.33;;;;;;;22.52;47.39;95097.81;5072353;28;20252;-74
2023/09/29 06:59:33;;;;;;;2.55;1.60;;;;;;;22.52;47.75;95098.59;5072980;28;20210;-74
2023/09/29 07:02:00;;;;;;;1.85;1.45;;;;;;;23.93;46.57;95094.09;5072322;28;20203;-74
2023/09/29 07:04:27;;;;;;;3.30;1.67;;;;;;;24.39;45.85;95095.88;5072663;28;20207;-73
2023/09/29 07:06:53;;;;;;;2.25;1.50;;;;;;;24.06;46.36;95094.41;5072294;28;21001;-73
2023/09/29 07:09:22;;;;;;;3.50;1.77;;;;;;;23.72;46.16;95096.94;5072466;28;20231;-72
2023/09/29 07:11:49;;;;;;;4.50;1.73;;;;;;;22.86;48.96;95101.00;5071765;28;20231;-73
2023/09/29 07:14:16;;;;;;;2.60;2.00;;;;;;;23.38;47.97;95089.09;5072566;28;20210;-74
2023/09/29 07:16:46;;;;;;;1.75;1.40;;;;;;;23.85;45.57;95095.31;5071843;28;20322;-76
2023/09/29 07:19:13;;;;;;;2.70;1.42;;;;;;;24.02;44.77;95101.97;5071818;28;20569;-73
2023/09/29 07:21:40;;;;;;;1.63;1.42;;;;;;;23.60;45.56;95106.47;5071490;28;20207;-74
2023/09/29 07:24:08;;;;;;;1.88;1.33;;;;;;;24.16;44.59;95104.69;5071598;28;20203;-75
2023/09/29 07:26:38;;;;;;;3.05;1.95;;;;;;;24.30;44.10;95103.84;5071902;28;20215;-74
2023/09/29 07:29:05;;;;;;;3.42;1.42;;;;;;;24.37;44.74;95099.03;5070463;28;20203;-74
2023/09/29 07:31:36;;;;;;;2.65;1.60;;;;;;;23.50;43.70;95101.72;5071357;28;20591;-72
2023/09/29 07:34:03;;;;;;;4.15;1.38;;;;;;;23.65;44.25;95102.50;5071636;28;20541;-74
2023/09/29 07:36:31;;;;;;;2.08;1.20;;;;;;;23.38;45.19;95105.69;5071952;28;20638;-75
2023/09/29 07:38:58;;;;;;;1.42;0.98;;;;;;;23.28;45.13;95117.56;5071319;28;20674;-74
2023/09/29 07:41:25;;;;;;;1.63;1.20;;;;;;;23.46;44.92;95114.78;5070707;28;20256;-73
2023/09/29 07:43:53;;;;;;;1.20;1.10;;;;;;;23.38;45.03;95113.97;5070998;28;20210;-72
2023/09/29 07:46:20;;;;;;;1.60;1.20;;;;;;;23.31;43.74;95116.78;5071120;28;20293;-73
2023/09/29 07:48:47;;;;;;;4.20;1.77;;;;;;;23.02;44.57;95123.50;5071282;28;20553;-72
2023/09/29 07:51:14;;;;;;;4.38;1.35;;;;;;;23.18;43.45;95115.59;5070443;28;20210;-72
2023/09/29 07:53:41;;;;;;;2.15;1.00;;;;;;;23.17;42.64;95116.78;5070854;28;20203;-74
2023/09/29 07:56:08;;;;;;;2.97;2.08;;;;;;;23.49;42.45;95118.72;5070998;28;20206;-73
2023/09/29 07:58:35;;;;;;;1.85;1.10;;;;;;;23.87;41.95;95120.63;5071021;28;20616;-73
2023/09/29 08:01:03;;;;;;;2.17;0.93;;;;;;;23.96;43.45;95115.44;5070832;28;20238;-73
2023/09/29 08:03:30;;;;;;;2.90;1.50;;;;;;;23.69;41.35;95114.34;5070529;28;20211;-73
2023/09/29 08:05:57;;;;;;;3.88;1.35;;;;;;;23.94;40.60;95114.25;5070565;28;20218;-72
2023/09/29 08:08:24;;;;;;;1.70;0.95;;;;;;;24.50;40.31;95110.44;5070883;28;20301;-73
2023/09/29 08:10:50;;;;;;;1.50;1.00;;;;;;;24.47;40.95;95108.47;5070356;28;20622;-73
2023/09/29 08:13:17;;;;;;;2.28;1.20;;;;;;;24.33;36.87;95112.13;5070522;28;20203;-73
2023/09/29 08:15:44;;;;;;;1.55;1.13;;;;;;;24.98;37.25;95106.97;5070893;28;20294;-72
2023/09/29 08:18:12;;;;;;;1.38;1.10;;;;;;;24.83;37.03;95103.50;5070309;28;20237;-74
2023/09/29 08:20:39;;;;;;;2.08;0.98;;;;;;;25.31;35.85;95103.50;5070408;28;20516;-73
2023/09/29 08:23:05;;;;;;;3.03;1.25;;;;;;;25.60;35.46;95104.00;5070031;28;20305;-74
2023/09/29 08:25:33;;;;;;;1.20;1.00;;;;;;;25.72;35.93;95108.25;5070418;28;20203;-73
2023/09/29 08:28:02;;;;;;;1.02;0.75;;;;;;;25.62;34.47;95103.63;5070526;28;20229;-75
2023/09/29 08:30:29;;;;;;;0.90;0.80;;;;;;;26.07;34.37;95102.31;5070188;28;20229;-75
2023/09/29 08:32:56;;;;;;;1.60;0.75;;;;;;;25.65;33.13;95102.81;5069928;28;20264;-74
2023/09/29 08:35:27;;;;;;;2.40;0.82;;;;;;;25.94;33.13;95098.50;5070022;28;20591;-74
2023/09/29 08:37:54;;;;;;;1.20;0.70;;;;;;;26.53;32.49;95106.47;5069863;28;20746;-75
2023/09/29 08:40:21;;;;;;;1.38;0.85;;;;;;;25.21;34.11;95100.81;5070028;28;20202;-75
2023/09/29 08:42:50;;;;;;;2.03;1.00;;;;;;;24.82;33.50;95101.91;5070396;28;20297;-74
2023/09/29 08:45:17;;;;;;;6.55;1.60;;;;;;;25.02;32.97;95105.72;5069614;28;20314;-74
2023/09/29 08:47:50;;;;;;;0.60;0.60;;;;;;;24.66;33.76;95104.41;5069800;28;20207;-76
2023/09/29 08:50:18;;;;;;;2.22;0.90;;;;;;;24.86;33.93;95101.91;5070104;28;20211;-75
2023/09/29 08:52:46;;;;;;;1.50;0.98;;;;;;;24.31;34.54;95100.69;5069830;28;20210;-73
2023/09/29 08:55:14;;;;;;;1.98;1.25;;;;;;;24.09;35.88;95104.69;5068719;28;20667;-75
2023/09/29 08:57:43;;;;;;;1.33;0.95;;;;;;;23.63;34.95;95111.22;5069445;28;20203;-75
2023/09/29 09:00:12;;;;;;;0.90;0.90;;;;;;;23.47;35.70;95107.25;5069778;28;20294;-75
2023/09/29 09:02:41;;;;;;;1.50;0.90;;;;;;;23.97;35.41;95103.16;5070161;28;20214;-75
2023/09/29 09:05:10;;;;;;;1.23;0.70;;;;;;;23.77;35.52;95104.84;5069622;28;20571;-75
2023/09/29 09:07:37;;;;;;;1.08;0.80;;;;;;;23.64;35.82;95107.22;5069644;28;20552;-76
2023/09/29 09:10:07;;;;;;;1.75;1.10;;;;;;;23.73;37.23;95109.59;5069355;28;20321;-76
2023/09/29 09:12:34;;;;;;;1.33;0.82;;;;;;;23.64;34.80;95112.00;5069681;28;20207;-77
2023/09/29 09:15:03;;;;;;;2.15;0.80;;;;;;;23.71;36.76;95106.44;5069278;28;20675;-75
2023/09/29 09:17:30;;;;;;;1.77;0.80;;;;;;;23.52;36.57;95109.63;5069737;28;20218;-76
2023/09/29 09:19:56;;;;;;;1.00;0.82;;;;;;;23.18;35.67;95106.53;5069519;28;20698;-76
2023/09/29 09:22:27;;;;;;;1.42;1.00;;;;;;;22.94;35.33;95108.13;5069625;28;20213;-77
2023/09/29 09:24:58;;;;;;;1.38;0.95;;;;;;;23.36;35.50;95102.56;5069110;28;20210;-75
2023/09/29 09:27:26;;;;;;;1.30;0.70;;;;;;;23.56;36.02;95104.91;5069663;28;20187;-77
2023/09/29 09:29:53;;;;;;;1.08;0.98;;;;;;;23.76;35.02;95100.50;5069419;28;20639;-76
2023/09/29 09:32:27;;;;;;;1.70;0.95;;;;;;;24.07;34.67;95107.88;5069722;28;20622;-76
2023/09/29 09:34:54;;;;;;;1.10;0.90;;;;;;;23.44;34.45;95102.53;5069594;28;20216;-76
2023/09/29 09:37:25;;;;;;;1.38;0.90;;;;;;;23.82;34.79;95107.19;5069915;28;20207;-75
2023/09/29 09:39:55;;;;;;;1.20;0.90;;;;;;;24.13;34.91;95105.47;5069291;28;20191;-74
2023/09/29 09:42:27;;;;;;;2.00;1.27;;;;;;;23.82;34.84;95104.41;5069761;28;20606;-75
2023/09/29 09:44:56;;;;;;;2.20;1.35;;;;;;;23.71;34.36;95098.13;5069656;28;20248;-74
2023/09/29 09:47:25;;;;;;;0.77;0.77;;;;;;;23.82;35.03;95101.66;5069637;28;20210;-75
2023/09/29 09:49:56;;;;;;;1.20;1.10;;;;;;;23.72;34.85;95096.94;5069222;28;20223;-76
2023/09/29 09:52:25;;;;;;;0.90;0.82;;;;;;;23.64;35.24;95090.63;5069092;28;20286;-77
2023/09/29 09:54:55;;;;;;;2.50;1.05;;;;;;;23.80;34.08;95098.50;5069143;28;20195;-74
2023/09/29 09:57:29;;;;;;;1.23;0.80;;;;;;;23.77;34.99;95093.78;5069462;28;20222;-75
2023/09/29 09:59:56;;;;;;;0.80;0.73;;;;;;;23.76;34.42;95091.41;5068732;28;20219;-78
2023/09/29 10:02:25;;;;;;;1.77;1.33;;;;;;;23.70;34.68;95099.31;5069132;28;20210;-75
2023/09/29 10:04:54;;;;;;;1.52;1.02;;;;;;;23.42;35.42;95093.84;5068544;28;20210;-76
2023/09/29 10:07:21;;;;;;;1.05;0.95;;;;;;;23.43;35.68;95095.41;5072490;28;20259;-75
2023/09/29 10:09:49;;;;;;;1.15;0.95;;;;;;;23.49;35.36;95083.56;5072932;28;20632;-74
2023/09/29 10:12:28;;;;;;;1.90;1.17;;;;;;;23.47;36.17;95085.13;5072539;28;20239;-75
2023/09/29 10:14:55;;;;;;;2.40;1.15;;;;;;;23.33;36.59;95089.50;5072508;28;20684;-76
2023/09/29 10:17:23;;;;;;;1.10;0.90;;;;;;;23.41;36.21;95079.22;5072782;28;20559;-75
2023/09/29 10:19:54;;;;;;;3.30;1.38;;;;;;;23.59;36.87;95080.00;5072405;28;20207;-76
2023/09/29 10:22:28;;;;;;;1.27;1.10;;;;;;;23.68;36.37;95068.50;5072860;28;20648;-76
2023/09/29 10:24:56;;;;;;;1.50;1.20;;;;;;;23.86;36.65;95079.50;5072640;28;20190;-77
2023/09/29 10:27:32;;;;;;;1.08;0.90;;;;;;;23.90;35.94;95075.53;5072582;28;20205;-77
2023/09/29 10:30:16;;;;;;;1.40;0.93;;;;;;;23.67;37.37;95073.25;5072477;28;20747;-74
2023/09/29 10:32:43;;;;;;;1.50;1.40;;;;;;;23.42;36.13;95080.00;5072276;28;20206;-76
2023/09/29 10:35:18;;;;;;;6.35;1.50;;;;;;;23.63;36.60;95068.94;5072324;28;20209;-74
2023/09/29 10:37:47;;;;;;;0.75;0.75;;;;;;;23.71;36.55;95067.69;5072675;28;20187;-75
2023/09/29 10:40:21;;;;;;;2.10;1.35;;;;;;;23.56;36.04;95066.16;5072178;28;20264;-74
2023/09/29 10:42:54;;;;;;;2.97;1.20;;;;;;;23.56;36.75;95060.63;5072147;28;20191;-75
2023/09/29 10:45:30;;;;;;;1.25;0.85;;;;;;;23.41;35.31;95054.31;5072414;28;20218;-72
2023/09/29 10:48:02;;;;;;;1.27;1.10;;;;;;;23.49;34.72;95052.34;5072079;28;20199;-74
2023/09/29 10:50:29;;;;;;;1.20;0.95;;;;;;;23.74;34.44;95053.06;5072243;28;20215;-73
2023/09/29 10:52:56;;;;;;;1.80;0.98;;;;;;;23.86;34.05;95058.16;5072083;28;20203;-75
2023/09/29 10:55:23;;;;;;;1.23;0.98;;;;;;;23.87;34.22;95048.66;5071840;28;20297;-72
2023/09/29 10:57:51;;;;;;;0.95;0.82;;;;;;;23.56;33.84;95055.09;5072040;28;20215;-72
2023/09/29 11:00:19;;;;;;;1.58;1.10;;;;;;;23.44;35.22;95052.75;5067836;28;20215;-73
2023/09/29 11:02:49;;;;;;;1.10;1.00;;;;;;;23.42;35.04;95041.28;5064522;28;20261;-73
2023/09/29 11:05:16;;;;;;;1.45;1.00;;;;;;;23.49;35.34;95044.84;5068128;28;20211;-76
2023/09/29 11:07:48;;;;;;;1.02;0.88;;;;;;;23.39;35.03;95043.66;5067386;28;21325;-76
2023/09/29 11:10:17;;;;;;;1.33;1.08;;;;;;;23.28;35.42;95034.63;5063189;28;20218;-76
2023/09/29 11:12:46;;;;;;;2.10;1.10;;;;;;;23.46;35.65;95029.03;5068148;28;20268;-77
2023/09/29 11:15:16;;;;;;;1.35;1.08;;;;;;;23.58;35.28;95027.84;5061968;28;20655;-73
2023/09/29 11:17:47;;;;;;;1.20;1.10;;;;;;;23.74;35.04;95028.97;5059436;28;20278;-77
2023/09/29 11:20:21;;;;;;;1.23;1.10;;;;;;;23.64;35.03;95029.00;5062522;28;20202;-77
2023/09/29 11:22:59;;;;;;;2.10;1.30;;;;;;;23.73;34.99;95032.13;5061618;28;20282;-77
2023/09/29 11:25:26;;;;;;;1.20;1.00;;;;;;;23.79;34.81;95013.91;5062020;28;20195;-76
2023/09/29 11:27:53;;;;;;;1.38;1.23;;;;;;;23.71;35.13;95017.91;5062446;28;20203;-77
2023/09/29 11:30:24;;;;;;;1.55;1.10;;;;;;;23.86;35.72;95019.41;5061095;28;20560;-76
2023/09/29 11:32:51;;;;;;;1.90;1.40;;;;;;;23.83;36.21;95014.66;5062877;28;20564;-76
2023/09/29 11:35:18;;;;;;;1.38;1.00;;;;;;;24.00;36.40;95005.50;5060743;28;20600;-75
2023/09/29 11:37:46;;;;;;;2.97;1.63;;;;;;;23.80;35.57;95012.72;5059948;28;20709;-76